sensor_id;sensor_type;location;lat;lon;timestamp;P1;durP1;ratioP1;P2;durP2;ratioP2
7029;SDS011;3556;53.500;10.176;2023-02-28T00:00:12;8.77;;;5.70;;
7029;SDS011;3556;53.500;10.176;2023-02-28T00:02:40;7.20;;;6.50;;
7029;SDS011;3556;53.500;10.176;2023-02-28T00:05:08;14.77;;;6.37;;
7029;SDS011;3556;53.500;10.176;2023-02-28T00:07:35;7.87;;;6.50;;
7029;SDS011;3556;53.500;10.176;2023-02-28T00:10:01;8.87;;;6.20;;
7029;SDS011;3556;53.500;10.176;2023-02-28T00:12:29;7.57;;;6.90;;
7029;SDS011;3556;53.500;10.176;2023-02-28T00:14:55;6.70;;;6.10;;
7029;SDS011;3556;53.500;10.176;2023-02-28T00:17:20;7.60;;;5.97;;
7029;SDS011;3556;53.500;10.176;2023-02-28T00:19:50;9.27;;;6.00;;
7029;SDS011;3556;53.500;10.176;2023-02-28T00:22:17;7.50;;;6.10;;
7029;SDS011;3556;53.500;10.176;2023-02-28T00:24:44;7.77;;;6.60;;
7029;SDS011;3556;53.500;10.176;2023-02-28T00:27:10;6.07;;;5.30;;
7029;SDS011;3556;53.500;10.176;2023-02-28T00:29:36;6.83;;;5.97;;
7029;SDS011;3556;53.500;10.176;2023-02-28T00:32:02;6.53;;;5.97;;
7029;SDS011;3556;53.500;10.176;2023-02-28T00:34:29;7.83;;;5.43;;
7029;SDS011;3556;53.500;10.176;2023-02-28T00:36:54;5.70;;;5.20;;
7029;SDS011;3556;53.500;10.176;2023-02-28T00:39:20;5.30;;;4.80;;
7029;SDS011;3556;53.500;10.176;2023-02-28T00:41:46;6.50;;;4.73;;
7029;SDS011;3556;53.500;10.176;2023-02-28T00:44:11;5.87;;;4.87;;
7029;SDS011;3556;53.500;10.176;2023-02-28T00:46:37;5.83;;;5.23;;
7029;SDS011;3556;53.500;10.176;2023-02-28T00:49:03;6.97;;;4.37;;
7029;SDS011;3556;53.500;10.176;2023-02-28T00:51:28;5.73;;;4.70;;
7029;SDS011;3556;53.500;10.176;2023-02-28T00:53:54;6.23;;;5.57;;
7029;SDS011;3556;53.500;10.176;2023-02-28T00:56:19;5.13;;;4.63;;
7029;SDS011;3556;53.500;10.176;2023-02-28T00:58:45;5.50;;;4.60;;
7029;SDS011;3556;53.500;10.176;2023-02-28T01:01:11;5.97;;;5.30;;
7029;SDS011;3556;53.500;10.176;2023-02-28T01:03:36;5.40;;;4.80;;
7029;SDS011;3556;53.500;10.176;2023-02-28T01:06:02;5.13;;;4.77;;
7029;SDS011;3556;53.500;10.176;2023-02-28T01:08:28;5.93;;;5.30;;
7029;SDS011;3556;53.500;10.176;2023-02-28T01:10:53;7.80;;;5.03;;
7029;SDS011;3556;53.500;10.176;2023-02-28T01:13:19;9.17;;;6.00;;
7029;SDS011;3556;53.500;10.176;2023-02-28T01:15:49;7.50;;;5.43;;
7029;SDS011;3556;53.500;10.176;2023-02-28T01:18:16;12.53;;;6.10;;
7029;SDS011;3556;53.500;10.176;2023-02-28T01:20:42;5.50;;;5.07;;
7029;SDS011;3556;53.500;10.176;2023-02-28T01:23:08;6.10;;;5.40;;
7029;SDS011;3556;53.500;10.176;2023-02-28T01:25:36;9.00;;;5.43;;
7029;SDS011;3556;53.500;10.176;2023-02-28T01:28:02;8.53;;;6.30;;
7029;SDS011;3556;53.500;10.176;2023-02-28T01:30:28;5.80;;;4.97;;
7029;SDS011;3556;53.500;10.176;2023-02-28T01:32:54;9.70;;;5.93;;
7029;SDS011;3556;53.500;10.176;2023-02-28T01:35:20;6.30;;;5.80;;
7029;SDS011;3556;53.500;10.176;2023-02-28T01:37:45;12.13;;;6.10;;
7029;SDS011;3556;53.500;10.176;2023-02-28T01:40:11;7.30;;;5.50;;
7029;SDS011;3556;53.500;10.176;2023-02-28T01:42:37;10.10;;;6.27;;
7029;SDS011;3556;53.500;10.176;2023-02-28T01:47:39;11.10;;;6.73;;
7029;SDS011;3556;53.500;10.176;2023-02-28T01:50:09;8.60;;;5.70;;
7029;SDS011;3556;53.500;10.176;2023-02-28T01:52:39;6.77;;;5.80;;
7029;SDS011;3556;53.500;10.176;2023-02-28T01:55:05;6.90;;;5.87;;
7029;SDS011;3556;53.500;10.176;2023-02-28T01:57:34;10.03;;;6.10;;
7029;SDS011;3556;53.500;10.176;2023-02-28T02:00:07;6.60;;;6.00;;
7029;SDS011;3556;53.500;10.176;2023-02-28T02:02:35;6.77;;;6.13;;
7029;SDS011;3556;53.500;10.176;2023-02-28T02:05:06;9.90;;;5.33;;
7029;SDS011;3556;53.500;10.176;2023-02-28T02:07:39;9.67;;;6.00;;
7029;SDS011;3556;53.500;10.176;2023-02-28T02:15:40;6.80;;;5.40;;
7029;SDS011;3556;53.500;10.176;2023-02-28T02:18:15;5.20;;;4.80;;
7029;SDS011;3556;53.500;10.176;2023-02-28T02:29:38;7.37;;;6.13;;
7029;SDS011;3556;53.500;10.176;2023-02-28T02:37:40;6.00;;;5.40;;
7029;SDS011;3556;53.500;10.176;2023-02-28T02:40:50;12.10;;;6.73;;
7029;SDS011;3556;53.500;10.176;2023-02-28T02:43:47;8.13;;;6.00;;
7029;SDS011;3556;53.500;10.176;2023-02-28T02:46:18;12.53;;;6.20;;
7029;SDS011;3556;53.500;10.176;2023-02-28T02:49:12;12.13;;;6.70;;
7029;SDS011;3556;53.500;10.176;2023-02-28T02:51:51;13.30;;;6.17;;
7029;SDS011;3556;53.500;10.176;2023-02-28T02:54:22;11.43;;;6.80;;
7029;SDS011;3556;53.500;10.176;2023-02-28T02:56:53;14.23;;;6.83;;
7029;SDS011;3556;53.500;10.176;2023-02-28T02:59:24;12.37;;;6.47;;
7029;SDS011;3556;53.500;10.176;2023-02-28T03:01:53;6.90;;;5.80;;
7029;SDS011;3556;53.500;10.176;2023-02-28T03:04:22;12.63;;;7.43;;
7029;SDS011;3556;53.500;10.176;2023-02-28T03:06:50;9.40;;;7.30;;
7029;SDS011;3556;53.500;10.176;2023-02-28T03:09:22;15.23;;;6.80;;
7029;SDS011;3556;53.500;10.176;2023-02-28T03:11:49;7.70;;;6.80;;
7029;SDS011;3556;53.500;10.176;2023-02-28T03:20:26;9.00;;;6.83;;
7029;SDS011;3556;53.500;10.176;2023-02-28T03:25:31;9.13;;;6.37;;
7029;SDS011;3556;53.500;10.176;2023-02-28T03:30:35;8.50;;;7.13;;
7029;SDS011;3556;53.500;10.176;2023-02-28T03:33:26;9.17;;;6.70;;
7029;SDS011;3556;53.500;10.176;2023-02-28T03:35:58;10.33;;;7.20;;
7029;SDS011;3556;53.500;10.176;2023-02-28T03:41:19;10.90;;;6.50;;
7029;SDS011;3556;53.500;10.176;2023-02-28T03:43:56;7.33;;;6.63;;
7029;SDS011;3556;53.500;10.176;2023-02-28T03:46:27;7.60;;;6.80;;
7029;SDS011;3556;53.500;10.176;2023-02-28T03:49:02;7.43;;;6.30;;
7029;SDS011;3556;53.500;10.176;2023-02-28T03:51:33;9.27;;;6.47;;
7029;SDS011;3556;53.500;10.176;2023-02-28T03:54:03;7.37;;;6.67;;
7029;SDS011;3556;53.500;10.176;2023-02-28T03:56:37;15.50;;;6.87;;
7029;SDS011;3556;53.500;10.176;2023-02-28T03:59:37;7.27;;;6.57;;
7029;SDS011;3556;53.500;10.176;2023-02-28T04:02:06;13.70;;;6.57;;
7029;SDS011;3556;53.500;10.176;2023-02-28T04:04:33;7.43;;;5.83;;
7029;SDS011;3556;53.500;10.176;2023-02-28T04:07:17;9.57;;;6.37;;
7029;SDS011;3556;53.500;10.176;2023-02-28T04:09:43;8.47;;;6.60;;
7029;SDS011;3556;53.500;10.176;2023-02-28T04:12:09;9.73;;;6.67;;
7029;SDS011;3556;53.500;10.176;2023-02-28T04:14:34;9.60;;;6.60;;
7029;SDS011;3556;53.500;10.176;2023-02-28T04:17:00;9.33;;;6.33;;
7029;SDS011;3556;53.500;10.176;2023-02-28T04:19:25;7.10;;;6.20;;
7029;SDS011;3556;53.500;10.176;2023-02-28T04:21:52;11.50;;;6.83;;
7029;SDS011;3556;53.500;10.176;2023-02-28T04:24:22;8.50;;;6.57;;
7029;SDS011;3556;53.500;10.176;2023-02-28T04:26:51;13.00;;;6.27;;
7029;SDS011;3556;53.500;10.176;2023-02-28T04:29:19;12.70;;;6.50;;
7029;SDS011;3556;53.500;10.176;2023-02-28T04:31:50;9.60;;;6.60;;
7029;SDS011;3556;53.500;10.176;2023-02-28T04:34:18;9.23;;;6.67;;
7029;SDS011;3556;53.500;10.176;2023-02-28T04:36:44;11.50;;;6.73;;
7029;SDS011;3556;53.500;10.176;2023-02-28T04:39:11;7.40;;;6.60;;
7029;SDS011;3556;53.500;10.176;2023-02-28T04:41:37;10.80;;;7.73;;
7029;SDS011;3556;53.500;10.176;2023-02-28T04:44:03;7.87;;;6.10;;
7029;SDS011;3556;53.500;10.176;2023-02-28T04:46:28;10.00;;;7.00;;
7029;SDS011;3556;53.500;10.176;2023-02-28T04:48:55;11.67;;;6.03;;
7029;SDS011;3556;53.500;10.176;2023-02-28T04:51:21;7.60;;;6.40;;
7029;SDS011;3556;53.500;10.176;2023-02-28T04:53:47;8.10;;;6.53;;
7029;SDS011;3556;53.500;10.176;2023-02-28T04:56:14;8.63;;;6.33;;
7029;SDS011;3556;53.500;10.176;2023-02-28T04:58:42;11.27;;;6.90;;
7029;SDS011;3556;53.500;10.176;2023-02-28T05:01:22;6.23;;;5.70;;
7029;SDS011;3556;53.500;10.176;2023-02-28T05:03:51;11.07;;;7.00;;
7029;SDS011;3556;53.500;10.176;2023-02-28T05:06:19;12.40;;;6.30;;
7029;SDS011;3556;53.500;10.176;2023-02-28T05:08:46;8.40;;;6.43;;
7029;SDS011;3556;53.500;10.176;2023-02-28T05:11:13;12.13;;;6.43;;
7029;SDS011;3556;53.500;10.176;2023-02-28T05:13:45;8.30;;;6.47;;
7029;SDS011;3556;53.500;10.176;2023-02-28T05:16:11;8.03;;;6.40;;
7029;SDS011;3556;53.500;10.176;2023-02-28T05:18:37;11.53;;;7.20;;
7029;SDS011;3556;53.500;10.176;2023-02-28T05:21:03;10.67;;;6.80;;
7029;SDS011;3556;53.500;10.176;2023-02-28T05:23:29;7.70;;;7.00;;
7029;SDS011;3556;53.500;10.176;2023-02-28T05:25:55;7.50;;;5.93;;
7029;SDS011;3556;53.500;10.176;2023-02-28T05:28:21;11.33;;;6.50;;
7029;SDS011;3556;53.500;10.176;2023-02-28T05:30:47;10.87;;;6.60;;
7029;SDS011;3556;53.500;10.176;2023-02-28T05:33:12;7.43;;;6.00;;
7029;SDS011;3556;53.500;10.176;2023-02-28T05:35:38;11.77;;;6.63;;
7029;SDS011;3556;53.500;10.176;2023-02-28T05:38:05;8.23;;;6.67;;
7029;SDS011;3556;53.500;10.176;2023-02-28T05:40:31;15.00;;;7.07;;
7029;SDS011;3556;53.500;10.176;2023-02-28T05:42:57;9.13;;;7.10;;
7029;SDS011;3556;53.500;10.176;2023-02-28T05:45:22;9.33;;;7.00;;
7029;SDS011;3556;53.500;10.176;2023-02-28T05:47:48;7.67;;;6.53;;
7029;SDS011;3556;53.500;10.176;2023-02-28T05:50:13;10.50;;;6.97;;
7029;SDS011;3556;53.500;10.176;2023-02-28T05:52:39;7.50;;;6.80;;
7029;SDS011;3556;53.500;10.176;2023-02-28T05:55:05;11.97;;;6.97;;
7029;SDS011;3556;53.500;10.176;2023-02-28T05:57:31;14.47;;;7.63;;
7029;SDS011;3556;53.500;10.176;2023-02-28T05:59:57;9.20;;;7.07;;
7029;SDS011;3556;53.500;10.176;2023-02-28T06:02:22;11.10;;;7.00;;
7029;SDS011;3556;53.500;10.176;2023-02-28T06:04:48;9.43;;;7.33;;
7029;SDS011;3556;53.500;10.176;2023-02-28T06:07:13;9.53;;;7.30;;
7029;SDS011;3556;53.500;10.176;2023-02-28T06:09:40;12.30;;;8.10;;
7029;SDS011;3556;53.500;10.176;2023-02-28T06:12:05;14.10;;;7.60;;
7029;SDS011;3556;53.500;10.176;2023-02-28T06:14:32;13.50;;;7.17;;
7029;SDS011;3556;53.500;10.176;2023-02-28T06:16:59;16.83;;;9.57;;
7029;SDS011;3556;53.500;10.176;2023-02-28T06:19:25;13.90;;;8.87;;
7029;SDS011;3556;53.500;10.176;2023-02-28T06:21:51;16.13;;;8.37;;
7029;SDS011;3556;53.500;10.176;2023-02-28T06:24:18;14.30;;;8.60;;
7029;SDS011;3556;53.500;10.176;2023-02-28T06:26:45;16.00;;;7.93;;
7029;SDS011;3556;53.500;10.176;2023-02-28T06:29:10;15.20;;;8.33;;
7029;SDS011;3556;53.500;10.176;2023-02-28T06:31:36;14.77;;;9.00;;
7029;SDS011;3556;53.500;10.176;2023-02-28T06:34:03;26.57;;;12.70;;
7029;SDS011;3556;53.500;10.176;2023-02-28T06:36:30;20.20;;;11.60;;
7029;SDS011;3556;53.500;10.176;2023-02-28T06:38:55;18.63;;;10.17;;
7029;SDS011;3556;53.500;10.176;2023-02-28T06:41:23;25.57;;;9.60;;
7029;SDS011;3556;53.500;10.176;2023-02-28T06:43:50;25.90;;;10.87;;
7029;SDS011;3556;53.500;10.176;2023-02-28T06:46:17;18.70;;;9.97;;
7029;SDS011;3556;53.500;10.176;2023-02-28T06:48:44;18.83;;;10.73;;
7029;SDS011;3556;53.500;10.176;2023-02-28T06:51:13;19.63;;;10.93;;
7029;SDS011;3556;53.500;10.176;2023-02-28T06:53:41;21.43;;;11.40;;
7029;SDS011;3556;53.500;10.176;2023-02-28T06:56:08;22.57;;;10.87;;
7029;SDS011;3556;53.500;10.176;2023-02-28T06:58:35;20.77;;;11.07;;
7029;SDS011;3556;53.500;10.176;2023-02-28T07:01:02;25.83;;;11.10;;
7029;SDS011;3556;53.500;10.176;2023-02-28T07:03:28;18.07;;;10.07;;
7029;SDS011;3556;53.500;10.176;2023-02-28T07:05:54;26.37;;;10.60;;
7029;SDS011;3556;53.500;10.176;2023-02-28T07:08:21;18.67;;;10.40;;
7029;SDS011;3556;53.500;10.176;2023-02-28T07:10:47;20.50;;;11.03;;
7029;SDS011;3556;53.500;10.176;2023-02-28T07:13:17;19.50;;;11.30;;
7029;SDS011;3556;53.500;10.176;2023-02-28T07:15:42;16.63;;;9.80;;
7029;SDS011;3556;53.500;10.176;2023-02-28T07:18:08;18.20;;;10.13;;
7029;SDS011;3556;53.500;10.176;2023-02-28T07:20:34;17.77;;;10.77;;
7029;SDS011;3556;53.500;10.176;2023-02-28T07:23:00;21.00;;;10.73;;
7029;SDS011;3556;53.500;10.176;2023-02-28T07:25:26;18.73;;;10.80;;
7029;SDS011;3556;53.500;10.176;2023-02-28T07:27:53;28.03;;;11.10;;
7029;SDS011;3556;53.500;10.176;2023-02-28T07:30:20;21.83;;;11.37;;
7029;SDS011;3556;53.500;10.176;2023-02-28T07:32:46;30.00;;;12.20;;
7029;SDS011;3556;53.500;10.176;2023-02-28T07:35:11;23.07;;;11.73;;
7029;SDS011;3556;53.500;10.176;2023-02-28T07:37:37;17.80;;;11.03;;
7029;SDS011;3556;53.500;10.176;2023-02-28T07:40:04;21.00;;;11.47;;
7029;SDS011;3556;53.500;10.176;2023-02-28T07:42:34;24.00;;;12.60;;
7029;SDS011;3556;53.500;10.176;2023-02-28T07:45:00;14.07;;;10.37;;
7029;SDS011;3556;53.500;10.176;2023-02-28T07:47:28;13.37;;;10.30;;
7029;SDS011;3556;53.500;10.176;2023-02-28T07:49:55;14.83;;;10.30;;
7029;SDS011;3556;53.500;10.176;2023-02-28T07:52:20;14.93;;;10.40;;
7029;SDS011;3556;53.500;10.176;2023-02-28T07:54:48;10.70;;;9.50;;
7029;SDS011;3556;53.500;10.176;2023-02-28T07:57:14;19.57;;;9.77;;
7029;SDS011;3556;53.500;10.176;2023-02-28T07:59:39;14.50;;;9.73;;
7029;SDS011;3556;53.500;10.176;2023-02-28T08:02:05;12.37;;;9.00;;
7029;SDS011;3556;53.500;10.176;2023-02-28T08:04:34;9.57;;;8.40;;
7029;SDS011;3556;53.500;10.176;2023-02-28T08:07:00;10.50;;;8.93;;
7029;SDS011;3556;53.500;10.176;2023-02-28T08:09:25;12.63;;;9.10;;
7029;SDS011;3556;53.500;10.176;2023-02-28T08:11:51;11.53;;;7.83;;
7029;SDS011;3556;53.500;10.176;2023-02-28T08:14:16;11.43;;;7.53;;
7029;SDS011;3556;53.500;10.176;2023-02-28T08:16:42;10.87;;;7.40;;
7029;SDS011;3556;53.500;10.176;2023-02-28T08:19:08;7.53;;;6.87;;
7029;SDS011;3556;53.500;10.176;2023-02-28T08:21:34;9.60;;;6.90;;
7029;SDS011;3556;53.500;10.176;2023-02-28T08:24:00;7.20;;;6.63;;
7029;SDS011;3556;53.500;10.176;2023-02-28T08:26:25;6.63;;;6.13;;
7029;SDS011;3556;53.500;10.176;2023-02-28T08:28:51;8.60;;;5.70;;
7029;SDS011;3556;53.500;10.176;2023-02-28T08:31:17;7.60;;;5.90;;
7029;SDS011;3556;53.500;10.176;2023-02-28T08:33:43;9.50;;;6.30;;
7029;SDS011;3556;53.500;10.176;2023-02-28T08:36:09;6.67;;;6.03;;
7029;SDS011;3556;53.500;10.176;2023-02-28T08:38:36;6.43;;;5.77;;
7029;SDS011;3556;53.500;10.176;2023-02-28T08:41:03;7.20;;;6.23;;
7029;SDS011;3556;53.500;10.176;2023-02-28T08:43:32;6.63;;;6.10;;
7029;SDS011;3556;53.500;10.176;2023-02-28T08:46:01;14.20;;;5.90;;
7029;SDS011;3556;53.500;10.176;2023-02-28T08:48:28;6.50;;;6.00;;
7029;SDS011;3556;53.500;10.176;2023-02-28T08:51:00;6.07;;;5.50;;
7029;SDS011;3556;53.500;10.176;2023-02-28T08:53:27;6.70;;;6.10;;
7029;SDS011;3556;53.500;10.176;2023-02-28T08:56:00;10.07;;;6.07;;
7029;SDS011;3556;53.500;10.176;2023-02-28T08:58:30;8.27;;;5.80;;
7029;SDS011;3556;53.500;10.176;2023-02-28T09:00:56;5.93;;;5.43;;
7029;SDS011;3556;53.500;10.176;2023-02-28T09:03:22;6.17;;;5.70;;
7029;SDS011;3556;53.500;10.176;2023-02-28T09:05:55;6.10;;;5.70;;
7029;SDS011;3556;53.500;10.176;2023-02-28T09:08:21;8.33;;;6.33;;
7029;SDS011;3556;53.500;10.176;2023-02-28T09:10:48;5.70;;;5.30;;
7029;SDS011;3556;53.500;10.176;2023-02-28T09:13:14;6.30;;;5.80;;
7029;SDS011;3556;53.500;10.176;2023-02-28T09:15:39;5.97;;;5.53;;
7029;SDS011;3556;53.500;10.176;2023-02-28T09:18:05;8.00;;;6.17;;
7029;SDS011;3556;53.500;10.176;2023-02-28T09:20:31;5.13;;;4.83;;
7029;SDS011;3556;53.500;10.176;2023-02-28T09:22:56;6.77;;;5.30;;
7029;SDS011;3556;53.500;10.176;2023-02-28T09:25:22;7.43;;;4.80;;
7029;SDS011;3556;53.500;10.176;2023-02-28T09:27:47;5.10;;;4.80;;
7029;SDS011;3556;53.500;10.176;2023-02-28T09:30:13;7.97;;;4.57;;
7029;SDS011;3556;53.500;10.176;2023-02-28T09:32:39;4.90;;;4.60;;
7029;SDS011;3556;53.500;10.176;2023-02-28T09:35:05;3.90;;;3.57;;
7029;SDS011;3556;53.500;10.176;2023-02-28T09:37:31;3.70;;;3.50;;
7029;SDS011;3556;53.500;10.176;2023-02-28T09:39:57;5.03;;;3.80;;
7029;SDS011;3556;53.500;10.176;2023-02-28T09:42:30;4.23;;;3.83;;
7029;SDS011;3556;53.500;10.176;2023-02-28T09:44:58;4.10;;;3.70;;
7029;SDS011;3556;53.500;10.176;2023-02-28T09:47:30;2.83;;;2.70;;
7029;SDS011;3556;53.500;10.176;2023-02-28T09:50:03;4.37;;;3.90;;
7029;SDS011;3556;53.500;10.176;2023-02-28T09:52:41;4.17;;;3.87;;
7029;SDS011;3556;53.500;10.176;2023-02-28T09:58:30;3.67;;;3.40;;
7029;SDS011;3556;53.500;10.176;2023-02-28T10:01:14;6.60;;;2.50;;
7029;SDS011;3556;53.500;10.176;2023-02-28T10:03:56;2.83;;;2.43;;
7029;SDS011;3556;53.500;10.176;2023-02-28T10:06:39;3.53;;;2.80;;
7029;SDS011;3556;53.500;10.176;2023-02-28T10:09:17;2.30;;;2.20;;
7029;SDS011;3556;53.500;10.176;2023-02-28T10:11:48;2.03;;;1.93;;
7029;SDS011;3556;53.500;10.176;2023-02-28T10:14:35;2.30;;;2.10;;
7029;SDS011;3556;53.500;10.176;2023-02-28T10:17:11;1.57;;;1.50;;
7029;SDS011;3556;53.500;10.176;2023-02-28T10:19:43;1.93;;;1.83;;
7029;SDS011;3556;53.500;10.176;2023-02-28T10:22:29;2.07;;;1.97;;
7029;SDS011;3556;53.500;10.176;2023-02-28T10:24:58;2.23;;;2.10;;
7029;SDS011;3556;53.500;10.176;2023-02-28T10:27:42;2.33;;;2.23;;
7029;SDS011;3556;53.500;10.176;2023-02-28T10:30:09;1.10;;;1.10;;
7029;SDS011;3556;53.500;10.176;2023-02-28T10:32:36;2.13;;;1.60;;
7029;SDS011;3556;53.500;10.176;2023-02-28T10:37:47;3.10;;;1.67;;
7029;SDS011;3556;53.500;10.176;2023-02-28T10:45:54;1.60;;;1.33;;
7029;SDS011;3556;53.500;10.176;2023-02-28T10:48:30;1.40;;;1.40;;
7029;SDS011;3556;53.500;10.176;2023-02-28T10:51:02;3.83;;;1.60;;
7029;SDS011;3556;53.500;10.176;2023-02-28T10:55:58;1.90;;;1.70;;
7029;SDS011;3556;53.500;10.176;2023-02-28T10:58:31;1.60;;;1.50;;
7029;SDS011;3556;53.500;10.176;2023-02-28T11:01:18;2.33;;;2.23;;
7029;SDS011;3556;53.500;10.176;2023-02-28T11:03:50;2.17;;;2.07;;
7029;SDS011;3556;53.500;10.176;2023-02-28T11:06:20;2.20;;;2.00;;
7029;SDS011;3556;53.500;10.176;2023-02-28T11:08:49;2.13;;;2.03;;
7029;SDS011;3556;53.500;10.176;2023-02-28T11:11:21;1.50;;;1.43;;
7029;SDS011;3556;53.500;10.176;2023-02-28T11:13:51;1.70;;;1.60;;
7029;SDS011;3556;53.500;10.176;2023-02-28T11:16:19;2.70;;;2.03;;
7029;SDS011;3556;53.500;10.176;2023-02-28T11:18:49;8.23;;;1.83;;
7029;SDS011;3556;53.500;10.176;2023-02-28T11:21:21;1.70;;;1.60;;
7029;SDS011;3556;53.500;10.176;2023-02-28T11:26:49;3.10;;;1.83;;
7029;SDS011;3556;53.500;10.176;2023-02-28T11:34:37;1.77;;;1.67;;
7029;SDS011;3556;53.500;10.176;2023-02-28T11:37:05;1.80;;;1.70;;
7029;SDS011;3556;53.500;10.176;2023-02-28T11:39:36;2.03;;;1.63;;
7029;SDS011;3556;53.500;10.176;2023-02-28T11:42:04;2.43;;;1.50;;
7029;SDS011;3556;53.500;10.176;2023-02-28T11:44:51;1.73;;;1.70;;
7029;SDS011;3556;53.500;10.176;2023-02-28T11:47:37;1.63;;;1.53;;
7029;SDS011;3556;53.500;10.176;2023-02-28T11:55:44;1.60;;;1.50;;
7029;SDS011;3556;53.500;10.176;2023-02-28T11:58:31;1.80;;;1.70;;
7029;SDS011;3556;53.500;10.176;2023-02-28T12:01:18;1.40;;;1.40;;
7029;SDS011;3556;53.500;10.176;2023-02-28T12:03:58;1.70;;;1.60;;
7029;SDS011;3556;53.500;10.176;2023-02-28T12:09:02;1.50;;;1.40;;
7029;SDS011;3556;53.500;10.176;2023-02-28T12:14:25;1.67;;;1.67;;
7029;SDS011;3556;53.500;10.176;2023-02-28T12:19:32;3.03;;;1.50;;
7029;SDS011;3556;53.500;10.176;2023-02-28T12:28:03;1.60;;;1.50;;
7029;SDS011;3556;53.500;10.176;2023-02-28T12:30:31;1.97;;;1.80;;
7029;SDS011;3556;53.500;10.176;2023-02-28T12:33:04;2.20;;;2.10;;
7029;SDS011;3556;53.500;10.176;2023-02-28T12:35:48;1.97;;;1.87;;
7029;SDS011;3556;53.500;10.176;2023-02-28T12:40:58;2.50;;;1.80;;
7029;SDS011;3556;53.500;10.176;2023-02-28T12:43:29;1.60;;;1.50;;
7029;SDS011;3556;53.500;10.176;2023-02-28T12:46:09;1.73;;;1.63;;
7029;SDS011;3556;53.500;10.176;2023-02-28T12:48:40;2.37;;;1.33;;
7029;SDS011;3556;53.500;10.176;2023-02-28T12:51:09;1.80;;;1.70;;
7029;SDS011;3556;53.500;10.176;2023-02-28T12:58:36;1.50;;;1.50;;
7029;SDS011;3556;53.500;10.176;2023-02-28T13:04:03;1.90;;;1.60;;
7029;SDS011;3556;53.500;10.176;2023-02-28T13:09:40;1.60;;;1.50;;
7029;SDS011;3556;53.500;10.176;2023-02-28T13:12:13;2.03;;;1.93;;
7029;SDS011;3556;53.500;10.176;2023-02-28T13:14:40;1.87;;;1.77;;
7029;SDS011;3556;53.500;10.176;2023-02-28T13:17:10;1.67;;;1.60;;
7029;SDS011;3556;53.500;10.176;2023-02-28T13:19:45;2.40;;;2.20;;
7029;SDS011;3556;53.500;10.176;2023-02-28T13:27:51;1.70;;;1.60;;
7029;SDS011;3556;53.500;10.176;2023-02-28T13:33:22;1.20;;;1.20;;
7029;SDS011;3556;53.500;10.176;2023-02-28T13:35:48;1.70;;;1.60;;
7029;SDS011;3556;53.500;10.176;2023-02-28T13:38:35;1.20;;;1.20;;
7029;SDS011;3556;53.500;10.176;2023-02-28T13:44:07;2.60;;;1.70;;
7029;SDS011;3556;53.500;10.176;2023-02-28T13:51:48;2.50;;;1.90;;
7029;SDS011;3556;53.500;10.176;2023-02-28T13:57:02;2.80;;;1.70;;
7029;SDS011;3556;53.500;10.176;2023-02-28T14:00:16;1.80;;;1.70;;
7029;SDS011;3556;53.500;10.176;2023-02-28T14:06:08;1.67;;;1.57;;
7029;SDS011;3556;53.500;10.176;2023-02-28T14:08:38;1.67;;;1.60;;
7029;SDS011;3556;53.500;10.176;2023-02-28T14:11:35;1.57;;;1.47;;
7029;SDS011;3556;53.500;10.176;2023-02-28T14:14:04;2.00;;;1.90;;
7029;SDS011;3556;53.500;10.176;2023-02-28T14:16:39;1.90;;;1.80;;
7029;SDS011;3556;53.500;10.176;2023-02-28T14:27:32;1.37;;;1.37;;
7029;SDS011;3556;53.500;10.176;2023-02-28T14:32:51;2.07;;;1.97;;
7029;SDS011;3556;53.500;10.176;2023-02-28T14:35:56;2.30;;;2.20;;
7029;SDS011;3556;53.500;10.176;2023-02-28T14:38:58;2.43;;;2.33;;
7029;SDS011;3556;53.500;10.176;2023-02-28T14:41:36;2.00;;;1.90;;
7029;SDS011;3556;53.500;10.176;2023-02-28T14:44:18;1.73;;;1.63;;
7029;SDS011;3556;53.500;10.176;2023-02-28T14:46:46;2.47;;;2.10;;
7029;SDS011;3556;53.500;10.176;2023-02-28T14:49:27;2.20;;;2.10;;
7029;SDS011;3556;53.500;10.176;2023-02-28T14:52:11;2.30;;;2.10;;
7029;SDS011;3556;53.500;10.176;2023-02-28T14:54:40;1.90;;;1.80;;
7029;SDS011;3556;53.500;10.176;2023-02-28T14:57:06;2.60;;;2.50;;
7029;SDS011;3556;53.500;10.176;2023-02-28T15:02:42;2.70;;;2.50;;
7029;SDS011;3556;53.500;10.176;2023-02-28T15:05:18;2.80;;;2.30;;
7029;SDS011;3556;53.500;10.176;2023-02-28T15:07:49;2.50;;;2.40;;
7029;SDS011;3556;53.500;10.176;2023-02-28T15:10:30;1.67;;;1.67;;
7029;SDS011;3556;53.500;10.176;2023-02-28T15:13:00;2.17;;;2.07;;
7029;SDS011;3556;53.500;10.176;2023-02-28T15:15:40;1.70;;;1.60;;
7029;SDS011;3556;53.500;10.176;2023-02-28T15:18:21;1.70;;;1.70;;
7029;SDS011;3556;53.500;10.176;2023-02-28T15:21:07;2.10;;;2.00;;
7029;SDS011;3556;53.500;10.176;2023-02-28T15:23:48;2.80;;;2.70;;
7029;SDS011;3556;53.500;10.176;2023-02-28T15:26:47;2.80;;;2.60;;
7029;SDS011;3556;53.500;10.176;2023-02-28T15:29:21;2.27;;;2.07;;
7029;SDS011;3556;53.500;10.176;2023-02-28T15:31:50;3.93;;;3.10;;
7029;SDS011;3556;53.500;10.176;2023-02-28T15:34:34;2.90;;;2.70;;
7029;SDS011;3556;53.500;10.176;2023-02-28T15:37:01;2.37;;;2.27;;
7029;SDS011;3556;53.500;10.176;2023-02-28T15:39:31;4.00;;;1.83;;
7029;SDS011;3556;53.500;10.176;2023-02-28T15:42:11;2.10;;;2.00;;
7029;SDS011;3556;53.500;10.176;2023-02-28T15:44:37;2.10;;;2.00;;
7029;SDS011;3556;53.500;10.176;2023-02-28T15:47:04;2.30;;;2.20;;
7029;SDS011;3556;53.500;10.176;2023-02-28T15:49:37;2.33;;;2.13;;
7029;SDS011;3556;53.500;10.176;2023-02-28T15:52:05;2.47;;;2.10;;
7029;SDS011;3556;53.500;10.176;2023-02-28T15:54:37;2.30;;;2.20;;
7029;SDS011;3556;53.500;10.176;2023-02-28T15:57:04;2.20;;;2.10;;
7029;SDS011;3556;53.500;10.176;2023-02-28T15:59:34;1.73;;;1.73;;
7029;SDS011;3556;53.500;10.176;2023-02-28T16:02:02;2.03;;;1.90;;
7029;SDS011;3556;53.500;10.176;2023-02-28T16:04:37;2.97;;;2.10;;
7029;SDS011;3556;53.500;10.176;2023-02-28T16:07:23;2.10;;;2.00;;
7029;SDS011;3556;53.500;10.176;2023-02-28T16:09:49;2.10;;;1.90;;
7029;SDS011;3556;53.500;10.176;2023-02-28T16:12:15;2.40;;;2.20;;
7029;SDS011;3556;53.500;10.176;2023-02-28T16:14:41;2.30;;;2.17;;
7029;SDS011;3556;53.500;10.176;2023-02-28T16:17:11;2.50;;;2.40;;
7029;SDS011;3556;53.500;10.176;2023-02-28T16:19:46;2.33;;;2.10;;
7029;SDS011;3556;53.500;10.176;2023-02-28T16:22:11;2.03;;;1.93;;
7029;SDS011;3556;53.500;10.176;2023-02-28T16:24:37;6.37;;;2.90;;
7029;SDS011;3556;53.500;10.176;2023-02-28T16:27:03;3.07;;;2.20;;
7029;SDS011;3556;53.500;10.176;2023-02-28T16:29:31;5.47;;;2.20;;
7029;SDS011;3556;53.500;10.176;2023-02-28T16:31:59;2.03;;;2.03;;
7029;SDS011;3556;53.500;10.176;2023-02-28T16:34:25;2.20;;;2.10;;
7029;SDS011;3556;53.500;10.176;2023-02-28T16:36:51;2.43;;;2.33;;
7029;SDS011;3556;53.500;10.176;2023-02-28T16:39:17;2.57;;;2.47;;
7029;SDS011;3556;53.500;10.176;2023-02-28T16:41:45;2.60;;;2.50;;
7029;SDS011;3556;53.500;10.176;2023-02-28T16:44:14;2.20;;;2.00;;
7029;SDS011;3556;53.500;10.176;2023-02-28T16:46:53;2.47;;;2.37;;
7029;SDS011;3556;53.500;10.176;2023-02-28T16:49:19;2.30;;;2.20;;
7029;SDS011;3556;53.500;10.176;2023-02-28T16:51:45;2.83;;;2.73;;
7029;SDS011;3556;53.500;10.176;2023-02-28T16:54:12;3.23;;;3.13;;
7029;SDS011;3556;53.500;10.176;2023-02-28T16:56:38;24.20;;;15.13;;
7029;SDS011;3556;53.500;10.176;2023-02-28T16:59:08;18.83;;;12.70;;
7029;SDS011;3556;53.500;10.176;2023-02-28T17:01:35;10.83;;;9.03;;
7029;SDS011;3556;53.500;10.176;2023-02-28T17:04:00;3.10;;;3.00;;
7029;SDS011;3556;53.500;10.176;2023-02-28T17:06:27;3.00;;;2.80;;
7029;SDS011;3556;53.500;10.176;2023-02-28T17:08:54;5.03;;;2.50;;
7029;SDS011;3556;53.500;10.176;2023-02-28T17:11:20;3.10;;;2.87;;
7029;SDS011;3556;53.500;10.176;2023-02-28T17:13:47;2.53;;;2.43;;
7029;SDS011;3556;53.500;10.176;2023-02-28T17:16:17;4.90;;;2.70;;
7029;SDS011;3556;53.500;10.176;2023-02-28T17:18:45;4.10;;;2.47;;
7029;SDS011;3556;53.500;10.176;2023-02-28T17:21:15;4.73;;;2.40;;